Койда

Карта отелей и гостиниц, располагающихся рядом с аэропортом Койда :

Койда Архангельская область 66° 22' 39.8316" N, 42° 33' 27.4716" E
Код аэродрома ИКАО
ULBJ
Код аэродрома RU
УЛБЙ
Координаты
N66.37773° E042.55763°
Превышение над уровнем моря
14
Основная полоса
05/23
Курс магнитный
050,2/230,2
Длина основной ВПП
660
Ширина основной ВПП
60
Покрытие основной ВПП
Нетвёрдое (грунт)
Освещение ВПП
Нет
Тип: 
Аэродром
Класс аэродрома: 
Принадлежность: 
ГА
Статус: 
Действующий
Сайт: 
E-mail аэродрома: 
Страна: 
Россия
Регион: 
Архангельская область
Город: 
Дополнительная информация: 
Владелец ПП: нет данных. Нкр.=(400)м, ОПРС: 195-АЖ.

Найти трансфер

С помощью этой формы Вы можете найти трансфер из аэропорта Койда в город, аэропорт или вокзал:

Карта места

Javascript is required to view this map.

Погода в аэропортах:

Авиационная погода в Зонгулдаке

Регион: 
Погода METAR: 
LTAS 241350Z 04003KT 340V110 6000 -SHRA FEW009 BKN023 BKN080 12/12 Q1026
Время наблюдения
2021-10-24T13:50:00Z
Температура C
12.0
Точка росы
12.0
Направление ветра
40
Скорость ветра (узлы)
3
Метео видимость
3.73
Явления погоды
-SHRA
Условия полета
MVFR

Авиационная погода в Воронеже

Регион: 
Погода METAR: 
UUOO 241700Z 33008MPS 9000 -SHRA BKN010 OVC///CB 03/01 Q1020 R30/290155 NOSIG RMK QFE752
Время наблюдения
2021-10-24T17:00:00Z
Температура C
3.0
Точка росы
1.0
Направление ветра
330
Скорость ветра (узлы)
16
Метео видимость
5.59
Явления погоды
-SHRA
Условия полета
MVFR
Аэропорт подробнее: 

Авиационная погода в Алматы

Регион: 
Погода METAR: 
UAAA 241800Z 15001MPS 1400 R23L/P2000D BR FU NSC 02/M00 Q1020 R23L/CLRD65 NOSIG
Время наблюдения
2021-10-24T18:00:00Z
Температура C
2.0
Точка росы
0.0
Направление ветра
150
Скорость ветра (узлы)
2
Метео видимость
0.87
Явления погоды
FU BR
Условия полета
LIFR
Аэропорт подробнее: 

Авиационная погода в Синопе

Регион: 
Погода METAR: 
LTCM 241650Z 32008KT 210V360 7000 -SHRA SCT015 BKN025 BKN070 13/11 Q1026
Время наблюдения
2021-10-24T16:50:00Z
Температура C
13.0
Точка росы
11.0
Направление ветра
320
Скорость ветра (узлы)
8
Метео видимость
4.35
Явления погоды
-SHRA
Условия полета
MVFR